createdAt,value
2023-05-14T00:00:37.700Z,20.25
2023-05-14T00:03:05.925Z,20.20
2023-05-14T00:05:35.367Z,21.10
2023-05-14T00:08:03.744Z,19.45
2023-05-14T00:10:32.104Z,18.58
2023-05-14T00:13:00.157Z,19.33
2023-05-14T00:15:28.164Z,19.98
2023-05-14T00:17:56.655Z,23.00
2023-05-14T00:20:25.349Z,20.48
2023-05-14T00:22:54.806Z,22.88
2023-05-14T00:25:22.735Z,20.92
2023-05-14T00:27:50.682Z,21.90
2023-05-14T00:30:18.711Z,22.50
2023-05-14T00:32:46.681Z,19.52
2023-05-14T00:35:14.657Z,22.55
2023-05-14T00:37:42.612Z,20.90
2023-05-14T00:40:13.585Z,22.92
2023-05-14T00:42:41.741Z,19.27
2023-05-14T00:45:10.421Z,22.75
2023-05-14T00:47:40.287Z,22.58
2023-05-14T00:50:09.452Z,22.50
2023-05-14T00:52:38.246Z,23.85
2023-05-14T00:55:08.200Z,24.80
2023-05-14T00:57:38.062Z,24.42
2023-05-14T01:00:07.693Z,24.08
2023-05-14T01:02:35.763Z,22.27
2023-05-14T01:05:04.235Z,23.45
2023-05-14T01:07:39.554Z,24.85
2023-05-14T01:10:12.708Z,23.58
2023-05-14T01:12:55.986Z,23.48
2023-05-14T01:15:28.827Z,24.08
2023-05-14T01:18:00.838Z,21.65
2023-05-14T01:20:28.831Z,22.05
2023-05-14T01:22:58.159Z,22.48
2023-05-14T01:25:26.388Z,21.48
2023-05-14T01:28:00.250Z,21.30
2023-05-14T01:30:32.479Z,23.02
2023-05-14T01:33:04.084Z,23.20
2023-05-14T01:35:32.115Z,20.35
2023-05-14T01:38:02.900Z,22.17
2023-05-14T01:40:32.695Z,23.52
2023-05-14T01:43:01.432Z,23.23
2023-05-14T01:45:29.378Z,22.95
2023-05-14T01:47:58.774Z,24.20
2023-05-14T01:50:26.684Z,25.27
2023-05-14T01:52:56.433Z,23.30
2023-05-14T01:55:26.105Z,21.98
2023-05-14T01:57:54.473Z,23.70
2023-05-14T02:00:25.372Z,24.85
2023-05-14T02:02:53.561Z,25.23
2023-05-14T02:05:22.013Z,25.08
2023-05-14T02:07:49.900Z,29.13
2023-05-14T02:10:18.930Z,26.15
2023-05-14T02:12:52.434Z,24.77
2023-05-14T02:15:20.351Z,28.48
2023-05-14T02:17:48.276Z,24.15
2023-05-14T02:20:16.358Z,25.88
2023-05-14T02:22:46.063Z,26.48
2023-05-14T02:25:14.173Z,30.52
2023-05-14T02:27:42.095Z,27.25
2023-05-14T02:30:12.743Z,27.73
2023-05-14T02:32:40.846Z,27.10
2023-05-14T02:35:09.898Z,28.08
2023-05-14T02:37:38.561Z,25.55
2023-05-14T02:40:08.118Z,27.30
2023-05-14T02:42:36.193Z,33.42
2023-05-14T02:45:04.256Z,29.35
2023-05-14T02:47:34.783Z,31.77
2023-05-14T02:50:04.894Z,33.38
2023-05-14T02:52:33.354Z,31.13
2023-05-14T02:55:01.265Z,31.25
2023-05-14T02:57:29.291Z,30.83
2023-05-14T02:59:57.232Z,34.70
2023-05-14T03:02:25.826Z,33.60
2023-05-14T03:04:55.592Z,34.45
2023-05-14T03:07:23.526Z,37.97
2023-05-14T03:09:51.466Z,31.50
2023-05-14T03:12:21.067Z,37.63
2023-05-14T03:14:49.024Z,37.17
2023-05-14T03:17:16.930Z,39.38
2023-05-14T03:19:46.115Z,37.17
2023-05-14T03:22:15.691Z,36.15
2023-05-14T03:24:43.605Z,35.97
2023-05-14T03:27:11.764Z,36.15
2023-05-14T03:29:39.609Z,38.47
2023-05-14T03:32:08.126Z,38.58
2023-05-14T03:34:36.751Z,36.92
2023-05-14T03:37:04.976Z,34.42
2023-05-14T03:39:34.374Z,34.58
2023-05-14T03:42:02.370Z,35.47
2023-05-14T03:44:30.562Z,40.60
2023-05-14T03:46:58.506Z,42.78
2023-05-14T03:49:26.674Z,36.33
2023-05-14T03:51:54.573Z,36.75
2023-05-14T03:54:22.542Z,39.85
2023-05-14T03:56:51.811Z,38.97
2023-05-14T03:59:19.745Z,36.58
2023-05-14T04:01:47.636Z,37.63
2023-05-14T04:04:15.605Z,36.78
2023-05-14T04:06:43.565Z,36.55
2023-05-14T04:09:11.913Z,38.38
2023-05-14T04:11:39.958Z,41.40
2023-05-14T04:14:09.278Z,32.53
2023-05-14T04:16:37.332Z,36.20
2023-05-14T04:19:05.810Z,35.85
2023-05-14T04:21:33.737Z,36.53
2023-05-14T04:24:01.625Z,34.55
2023-05-14T04:26:29.539Z,34.78
2023-05-14T04:28:58.194Z,40.85
2023-05-14T04:31:27.722Z,38.30
2023-05-14T04:33:55.637Z,37.78
2023-05-14T04:36:23.537Z,36.63
2023-05-14T04:38:51.625Z,37.75
2023-05-14T04:41:19.525Z,35.03
2023-05-14T04:43:48.258Z,46.70
2023-05-14T04:46:16.484Z,37.97
2023-05-14T04:48:45.830Z,39.35
2023-05-14T04:51:13.755Z,35.45
2023-05-14T04:53:41.618Z,38.65
2023-05-14T04:56:09.871Z,40.05
2023-05-14T04:58:37.732Z,39.58
2023-05-14T05:01:07.244Z,38.60
2023-05-14T05:03:35.296Z,38.95
2023-05-14T05:06:04.826Z,38.75
2023-05-14T05:08:32.734Z,38.40
2023-05-14T05:11:00.840Z,39.58
2023-05-14T05:13:28.765Z,41.78
2023-05-14T05:15:56.707Z,42.38
2023-05-14T05:18:24.747Z,43.75
2023-05-14T05:20:53.207Z,36.97
2023-05-14T05:23:22.549Z,38.92
2023-05-14T05:25:50.923Z,40.53
2023-05-14T05:28:18.802Z,41.13
2023-05-14T05:30:46.701Z,42.22
2023-05-14T05:33:14.680Z,35.95
2023-05-14T05:35:44.423Z,35.33
2023-05-14T05:38:12.350Z,37.97
2023-05-14T05:40:41.681Z,37.00
2023-05-14T05:43:09.633Z,37.10
2023-05-14T05:45:37.498Z,34.60
2023-05-14T05:51:51.811Z,40.20
2023-05-14T05:54:19.707Z,37.97
2023-05-14T05:56:48.947Z,38.58
2023-05-14T05:59:16.917Z,36.65
2023-05-14T06:01:46.224Z,36.25
2023-05-14T06:04:14.138Z,36.40
2023-05-14T06:06:42.168Z,37.08
2023-05-14T06:09:10.352Z,38.20
2023-05-14T06:11:38.260Z,38.17
2023-05-14T06:14:07.644Z,40.75
2023-05-14T06:16:35.724Z,38.08
2023-05-14T06:19:03.687Z,38.22
2023-05-14T06:21:31.663Z,34.83
2023-05-14T06:23:59.571Z,35.50
2023-05-14T06:26:27.695Z,35.13
2023-05-14T06:28:55.848Z,32.72
2023-05-14T06:31:25.105Z,34.78
2023-05-14T06:33:53.037Z,35.08
2023-05-14T06:36:20.922Z,30.88
2023-05-14T06:38:48.797Z,34.03
2023-05-14T06:41:17.906Z,34.67
2023-05-14T06:43:45.910Z,35.03
2023-05-14T06:46:13.789Z,32.15
2023-05-14T06:48:43.449Z,36.95
2023-05-14T06:51:13.192Z,32.33
2023-05-14T06:53:41.755Z,32.38
2023-05-14T06:56:09.665Z,31.73
2023-05-14T06:58:37.566Z,31.48
2023-05-14T07:01:06.566Z,30.73
2023-05-14T07:03:34.558Z,29.30
2023-05-14T07:06:03.881Z,29.38
2023-05-14T07:08:31.812Z,29.48
2023-05-14T07:11:01.820Z,29.85
2023-05-14T07:13:29.823Z,28.67
2023-05-14T07:15:57.814Z,29.73
2023-05-14T07:18:25.878Z,30.25
2023-05-14T07:20:54.184Z,27.38
2023-05-14T07:23:23.933Z,25.83
2023-05-14T07:25:54.043Z,25.25
2023-05-14T07:28:22.134Z,29.00
2023-05-14T07:30:50.142Z,28.98
2023-05-14T07:33:18.081Z,23.20
2023-05-14T07:35:46.164Z,25.02
2023-05-14T07:38:14.260Z,26.73
2023-05-14T07:40:43.566Z,26.67
2023-05-14T07:43:11.934Z,29.80
2023-05-14T07:45:40.122Z,23.05
2023-05-14T07:48:08.517Z,25.48
2023-05-14T07:50:36.573Z,23.50
2023-05-14T07:53:04.665Z,21.90
2023-05-14T07:55:32.605Z,21.60
2023-05-14T07:58:07.732Z,21.15
2023-05-14T08:00:36.064Z,21.95
2023-05-14T08:03:05.233Z,20.63
2023-05-14T08:05:33.568Z,21.77
2023-05-14T08:08:02.194Z,20.33
2023-05-14T08:10:30.711Z,22.33
2023-05-14T08:12:59.483Z,22.95
2023-05-14T08:15:29.201Z,21.13
2023-05-14T08:17:58.890Z,19.80
2023-05-14T08:20:27.523Z,20.75
2023-05-14T08:22:55.787Z,18.45
2023-05-14T08:25:24.087Z,19.23
2023-05-14T08:27:53.629Z,19.83
2023-05-14T08:30:22.088Z,19.83
2023-05-14T08:32:52.843Z,19.83
2023-05-14T08:35:21.118Z,20.13
2023-05-14T08:37:50.150Z,21.60
2023-05-14T08:40:18.614Z,19.35
2023-05-14T08:42:46.569Z,19.88
2023-05-14T08:45:19.106Z,19.45
2023-05-14T08:47:49.875Z,21.87
2023-05-14T08:50:23.840Z,20.25
2023-05-14T08:52:52.920Z,17.83
2023-05-14T08:55:22.424Z,19.85
2023-05-14T08:57:50.789Z,17.92
2023-05-14T09:00:20.052Z,17.42
2023-05-14T09:02:49.484Z,16.40
2023-05-14T09:05:20.321Z,18.27
2023-05-14T09:07:48.426Z,20.42
2023-05-14T09:10:17.240Z,22.33
2023-05-14T09:12:45.520Z,21.13
2023-05-14T09:15:13.854Z,20.33
2023-05-14T09:17:42.086Z,18.95
2023-05-14T09:20:15.953Z,19.73
2023-05-14T09:22:45.564Z,22.75
2023-05-14T09:25:13.578Z,20.20
2023-05-14T09:27:42.026Z,19.23
2023-05-14T09:30:12.081Z,18.00
2023-05-14T09:32:43.917Z,20.40
2023-05-14T09:35:18.138Z,18.83
2023-05-14T09:37:49.134Z,18.10
2023-05-14T09:40:19.646Z,17.33
2023-05-14T09:42:50.289Z,16.23
2023-05-14T09:45:19.103Z,15.10
2023-05-14T09:47:48.448Z,16.92
2023-05-14T09:50:16.537Z,16.88
2023-05-14T09:52:44.548Z,16.42
2023-05-14T09:55:14.445Z,16.42
2023-05-14T09:57:42.459Z,16.63
2023-05-14T10:00:12.984Z,17.88
2023-05-14T10:02:44.311Z,14.27
2023-05-14T10:05:15.915Z,15.68
2023-05-14T10:07:49.077Z,14.98
2023-05-14T10:10:20.922Z,15.35
2023-05-14T10:12:54.264Z,13.27
2023-05-14T10:18:03.900Z,16.20
2023-05-14T10:20:32.717Z,15.65
2023-05-14T10:23:02.049Z,12.77
2023-05-14T10:25:32.763Z,14.18
2023-05-14T10:28:01.158Z,11.90
2023-05-14T10:30:29.802Z,12.25
2023-05-14T10:33:09.924Z,12.52
2023-05-14T10:36:01.518Z,12.90
2023-05-14T10:38:30.912Z,11.77
2023-05-14T10:41:04.402Z,11.90
2023-05-14T10:43:37.422Z,11.55
2023-05-14T10:46:05.840Z,10.93
2023-05-14T10:48:34.475Z,10.35
2023-05-14T10:51:02.863Z,12.23
2023-05-14T10:53:35.589Z,10.85
2023-05-14T10:56:07.823Z,10.55
2023-05-14T10:58:39.161Z,11.30
2023-05-14T11:01:08.525Z,10.70
2023-05-14T11:03:42.431Z,11.90
2023-05-14T11:06:12.044Z,11.35
2023-05-14T11:08:40.452Z,10.82
2023-05-14T11:11:10.445Z,11.38
2023-05-14T11:13:38.539Z,10.73
2023-05-14T11:18:38.950Z,9.85
2023-05-14T11:21:06.942Z,13.23
2023-05-14T11:23:34.861Z,9.30
2023-05-14T11:26:03.069Z,10.32
2023-05-14T11:28:32.407Z,8.15
2023-05-14T11:31:00.370Z,8.93
2023-05-14T11:33:29.075Z,7.60
2023-05-14T11:35:56.937Z,11.18
2023-05-14T11:38:24.828Z,7.15
2023-05-14T11:40:54.112Z,7.05
2023-05-14T11:43:23.705Z,7.38
2023-05-14T11:45:54.546Z,7.40
2023-05-14T11:48:23.653Z,6.63
2023-05-14T11:50:53.198Z,6.57
2023-05-14T11:53:25.507Z,7.25
2023-05-14T11:55:55.143Z,6.38
2023-05-14T11:58:23.124Z,7.25
2023-05-14T12:00:53.051Z,6.80
2023-05-14T12:03:25.440Z,6.88
2023-05-14T12:05:58.032Z,6.72
2023-05-14T12:08:28.376Z,6.50
2023-05-14T12:11:00.033Z,6.63
2023-05-14T12:13:28.365Z,5.60
2023-05-14T12:15:59.606Z,6.10
2023-05-14T12:18:29.498Z,5.28
2023-05-14T12:21:03.015Z,8.38
2023-05-14T12:23:34.201Z,5.88
2023-05-14T12:26:08.073Z,6.13
2023-05-14T12:28:38.517Z,5.97
2023-05-14T12:31:08.783Z,5.95
2023-05-14T12:33:36.733Z,6.72
2023-05-14T12:36:20.447Z,5.25
2023-05-14T12:38:49.171Z,5.80
2023-05-14T12:41:17.682Z,6.45
2023-05-14T12:43:46.177Z,6.07
2023-05-14T12:46:16.391Z,5.90
2023-05-14T12:48:44.365Z,5.65
2023-05-14T12:51:12.268Z,4.80
2023-05-14T12:53:40.674Z,6.10
2023-05-14T12:56:09.035Z,6.18
2023-05-14T12:58:37.144Z,5.63
2023-05-14T13:01:06.027Z,6.35
2023-05-14T13:03:37.820Z,5.78
2023-05-14T13:06:06.238Z,6.35
2023-05-14T13:08:34.263Z,6.32
2023-05-14T13:11:02.177Z,6.78
2023-05-14T13:13:30.230Z,6.88
2023-05-14T13:15:58.209Z,7.00
2023-05-14T13:18:27.088Z,6.05
2023-05-14T13:20:56.418Z,6.88
2023-05-14T13:23:24.825Z,6.10
2023-05-14T13:25:52.924Z,5.70
2023-05-14T13:28:20.784Z,7.05
2023-05-14T13:31:05.983Z,6.05
2023-05-14T13:33:35.812Z,6.15
2023-05-14T13:36:06.123Z,7.35
2023-05-14T13:38:34.352Z,6.13
2023-05-14T13:41:03.006Z,6.57
2023-05-14T13:43:31.927Z,6.85
2023-05-14T13:46:00.409Z,7.50
2023-05-14T13:48:28.732Z,6.45
2023-05-14T13:50:56.715Z,8.68
2023-05-14T13:53:26.776Z,5.15
2023-05-14T13:55:56.635Z,4.15
2023-05-14T13:58:25.256Z,5.95
2023-05-14T14:00:53.876Z,6.03
2023-05-14T14:03:21.862Z,7.70
2023-05-14T14:05:50.059Z,6.68
2023-05-14T14:08:23.896Z,4.43
2023-05-14T14:10:55.686Z,3.88
2023-05-14T14:13:24.323Z,4.53
2023-05-14T14:15:52.462Z,4.50
2023-05-14T14:18:20.708Z,5.45
2023-05-14T14:20:48.944Z,4.35
2023-05-14T14:23:17.222Z,6.03
2023-05-14T14:25:45.262Z,5.18
2023-05-14T14:28:14.583Z,4.18
2023-05-14T14:30:44.850Z,5.43
2023-05-14T14:33:12.957Z,3.70
2023-05-14T14:35:41.027Z,3.88
2023-05-14T14:38:08.896Z,3.83
2023-05-14T14:40:36.845Z,4.82
2023-05-14T14:43:04.721Z,2.90
2023-05-14T14:45:33.979Z,3.85
2023-05-14T14:48:27.945Z,4.97
2023-05-14T14:50:56.417Z,4.70
2023-05-14T14:53:25.315Z,3.92
2023-05-14T14:55:53.417Z,3.35
2023-05-14T14:58:22.273Z,3.15
2023-05-14T15:00:53.736Z,3.90
2023-05-14T15:03:22.406Z,3.53
2023-05-14T15:05:51.161Z,3.67
2023-05-14T15:08:19.168Z,4.85
2023-05-14T15:10:47.569Z,3.20
2023-05-14T15:13:15.814Z,2.88
2023-05-14T15:15:43.760Z,3.30
2023-05-14T15:18:13.369Z,2.92
2023-05-14T15:20:41.348Z,2.90
2023-05-14T15:23:11.451Z,3.30
2023-05-14T15:25:39.661Z,2.67
2023-05-14T15:28:08.477Z,2.53
2023-05-14T15:30:36.788Z,4.07
2023-05-14T15:33:05.222Z,3.60
2023-05-14T15:35:34.647Z,3.83
2023-05-14T15:38:03.281Z,2.78
2023-05-14T15:40:31.285Z,2.70
2023-05-14T15:42:59.234Z,5.93
2023-05-14T15:45:28.479Z,2.72
2023-05-14T15:47:56.450Z,2.83
2023-05-14T15:50:25.740Z,2.53
2023-05-14T15:52:55.665Z,1.77
2023-05-14T15:55:23.712Z,2.83
2023-05-14T15:57:51.641Z,3.85
2023-05-14T16:00:20.245Z,1.90
2023-05-14T16:02:48.362Z,3.33
2023-05-14T16:05:16.409Z,2.00
2023-05-14T16:07:44.540Z,2.50
2023-05-14T16:10:14.146Z,1.67
2023-05-14T16:12:42.085Z,2.45
2023-05-14T16:15:10.917Z,1.75
2023-05-14T16:17:38.868Z,3.33
2023-05-14T16:20:07.888Z,2.45
2023-05-14T16:22:36.508Z,3.10
2023-05-14T16:25:05.782Z,5.93
2023-05-14T16:27:35.765Z,3.60
2023-05-14T16:30:04.437Z,5.88
2023-05-14T16:32:32.379Z,4.72
2023-05-14T16:35:33.885Z,5.63
2023-05-14T16:38:01.870Z,4.60
2023-05-14T16:40:30.201Z,4.85
2023-05-14T16:42:59.435Z,6.95
2023-05-14T16:45:27.429Z,6.80
2023-05-14T16:47:55.499Z,7.50
2023-05-14T16:50:23.487Z,6.43
2023-05-14T16:52:51.826Z,5.97
2023-05-14T16:55:20.590Z,7.70
2023-05-14T16:57:48.541Z,6.40
2023-05-14T17:00:18.169Z,5.57
2023-05-14T17:02:49.018Z,7.57
2023-05-14T17:05:17.209Z,7.03
2023-05-14T17:07:45.131Z,4.18
2023-05-14T17:10:13.361Z,3.13
2023-05-14T17:12:41.332Z,4.18
2023-05-14T17:15:10.305Z,4.97
2023-05-14T17:17:39.925Z,3.95
2023-05-14T17:20:08.720Z,4.30
2023-05-14T17:22:36.651Z,4.30
2023-05-14T17:25:05.375Z,3.25
2023-05-14T17:27:33.373Z,4.93
2023-05-14T17:30:04.381Z,3.05
2023-05-14T17:32:32.415Z,3.85
2023-05-14T17:35:01.754Z,3.30
2023-05-14T17:37:29.959Z,3.85
2023-05-14T17:39:57.944Z,4.20
2023-05-14T17:42:26.337Z,6.25
2023-05-14T17:44:54.689Z,4.18
2023-05-14T17:47:23.102Z,3.75
2023-05-14T17:49:52.506Z,3.33
2023-05-14T17:52:22.035Z,4.30
2023-05-14T17:54:50.107Z,4.85
2023-05-14T17:57:18.226Z,3.83
2023-05-14T17:59:46.372Z,3.90
2023-05-14T18:02:14.445Z,4.68
2023-05-14T18:04:42.464Z,3.75
2023-05-14T18:07:10.395Z,4.95
2023-05-14T18:09:39.693Z,4.05
2023-05-14T18:12:08.652Z,3.47
2023-05-14T18:14:36.664Z,5.28
2023-05-14T18:17:04.825Z,3.13
2023-05-14T18:19:32.773Z,3.55
2023-05-14T18:22:00.669Z,4.15
2023-05-14T18:24:31.678Z,3.30
2023-05-14T18:27:01.202Z,3.08
2023-05-14T18:29:29.180Z,4.82
2023-05-14T18:31:57.125Z,3.05
2023-05-14T18:34:25.159Z,3.25
2023-05-14T18:36:53.502Z,3.05
2023-05-14T18:39:21.417Z,2.90
2023-05-14T18:41:49.526Z,3.17
2023-05-14T18:44:18.809Z,3.75
2023-05-14T18:46:47.017Z,4.10
2023-05-14T18:49:15.219Z,4.95
2023-05-14T18:51:44.682Z,4.50
2023-05-14T18:54:13.702Z,3.97
2023-05-14T18:56:46.759Z,3.90
2023-05-14T18:59:15.509Z,4.03
2023-05-14T19:01:44.830Z,5.70
2023-05-14T19:04:13.054Z,5.30
2023-05-14T19:06:41.390Z,4.82
2023-05-14T19:09:09.657Z,4.43
2023-05-14T19:11:38.573Z,4.30
2023-05-14T19:14:06.546Z,4.68
2023-05-14T19:16:34.630Z,4.05
2023-05-14T19:19:04.089Z,3.88
2023-05-14T19:21:32.100Z,3.78
2023-05-14T19:24:00.183Z,3.78
2023-05-14T19:26:28.193Z,3.45
2023-05-14T19:28:58.971Z,3.90
2023-05-14T19:31:27.504Z,3.85
2023-05-14T19:34:23.649Z,4.45
2023-05-14T19:36:54.344Z,3.85
2023-05-14T19:39:24.312Z,4.10
2023-05-14T19:41:52.729Z,4.25
2023-05-14T19:44:21.061Z,3.50
2023-05-14T19:46:49.078Z,4.07
2023-05-14T19:49:18.375Z,4.30
2023-05-14T19:51:46.407Z,6.38
2023-05-14T19:54:15.704Z,6.43
2023-05-14T19:56:46.061Z,4.65
2023-05-14T19:59:15.572Z,6.72
2023-05-14T20:01:45.969Z,5.80
2023-05-14T20:04:17.857Z,6.78
2023-05-14T20:07:21.048Z,5.25
2023-05-14T20:09:49.130Z,7.28
2023-05-14T20:12:17.861Z,7.65
2023-05-14T20:14:47.552Z,6.30
2023-05-14T20:17:15.578Z,5.82
2023-05-14T20:19:44.071Z,6.70
2023-05-14T20:22:13.984Z,6.57
2023-05-14T20:24:42.310Z,6.63
2023-05-14T20:27:13.799Z,7.75
2023-05-14T20:29:44.373Z,9.30
2023-05-14T20:32:12.844Z,8.70
2023-05-14T20:34:42.171Z,8.45
2023-05-14T20:37:10.203Z,9.80
2023-05-14T20:39:39.518Z,8.23
2023-05-14T20:42:08.307Z,9.30
2023-05-14T20:44:36.872Z,8.32
2023-05-14T20:47:05.813Z,7.78
2023-05-14T20:49:34.027Z,12.48
2023-05-14T20:52:02.226Z,8.80
2023-05-14T20:54:30.583Z,9.05
2023-05-14T20:57:00.302Z,9.77
2023-05-14T20:59:31.378Z,9.65
2023-05-14T21:01:59.955Z,10.40
2023-05-14T21:04:29.831Z,10.48
2023-05-14T21:06:59.895Z,11.25
2023-05-14T21:09:28.752Z,11.43
2023-05-14T21:11:56.756Z,9.05
2023-05-14T21:14:26.198Z,9.52
2023-05-14T21:16:55.603Z,9.77
2023-05-14T21:19:24.219Z,8.63
2023-05-14T21:21:52.690Z,11.25
2023-05-14T21:24:20.714Z,14.75
2023-05-14T21:26:49.723Z,13.00
2023-05-14T21:29:18.601Z,8.88
2023-05-14T21:31:49.254Z,7.28
2023-05-14T21:34:17.628Z,6.70
2023-05-14T21:36:45.675Z,8.05
2023-05-14T21:39:14.068Z,7.68
2023-05-14T21:41:42.088Z,8.27
2023-05-14T21:44:10.451Z,9.68
2023-05-14T21:46:40.768Z,9.02
2023-05-14T21:49:10.120Z,8.98
2023-05-14T21:51:38.439Z,8.77
2023-05-14T21:54:07.089Z,9.40
2023-05-14T21:56:36.406Z,8.85
2023-05-14T21:59:04.781Z,5.65
2023-05-14T22:01:35.628Z,6.43
2023-05-14T22:04:13.957Z,5.93
2023-05-14T22:06:43.784Z,6.82
2023-05-14T22:09:12.203Z,5.35
2023-05-14T22:11:40.927Z,6.38
2023-05-14T22:14:08.885Z,7.00
2023-05-14T22:16:39.863Z,6.15
2023-05-14T22:19:08.521Z,10.38
2023-05-14T22:21:38.030Z,7.43
2023-05-14T22:24:06.898Z,7.28
2023-05-14T22:26:36.428Z,8.05
2023-05-14T22:29:04.771Z,6.80
2023-05-14T22:31:32.865Z,6.63
2023-05-14T22:34:00.900Z,7.47
2023-05-14T22:36:29.585Z,7.90
2023-05-14T22:38:59.048Z,8.73
2023-05-14T22:41:33.068Z,7.75
2023-05-14T22:44:02.202Z,7.88
2023-05-14T22:46:31.777Z,8.75
2023-05-14T22:49:00.199Z,9.15
2023-05-14T22:51:30.189Z,9.80
2023-05-14T22:53:59.626Z,9.00
2023-05-14T22:56:29.061Z,9.88
2023-05-14T22:58:57.316Z,9.10
2023-05-14T23:01:26.674Z,9.10
2023-05-14T23:03:56.077Z,8.20
2023-05-14T23:06:24.870Z,10.65
2023-05-14T23:08:52.897Z,8.73
2023-05-14T23:11:22.951Z,8.68
2023-05-14T23:13:51.729Z,9.63
2023-05-14T23:16:20.543Z,8.38
2023-05-14T23:18:48.726Z,8.68
2023-05-14T23:21:17.057Z,9.25
2023-05-14T23:23:45.382Z,9.10
2023-05-14T23:26:13.614Z,9.73
2023-05-14T23:28:43.019Z,12.57
2023-05-14T23:31:11.858Z,10.00
2023-05-14T23:33:41.979Z,10.18
2023-05-14T23:36:11.013Z,9.90
2023-05-14T23:38:39.550Z,12.25
2023-05-14T23:41:07.537Z,9.15
2023-05-14T23:43:36.047Z,11.93
2023-05-14T23:46:05.951Z,12.88
2023-05-14T23:48:34.405Z,9.10
2023-05-14T23:51:02.370Z,11.93
2023-05-14T23:53:30.393Z,9.43
2023-05-14T23:55:59.718Z,9.25
2023-05-14T23:58:29.871Z,12.98
